Time;durP1;ratioP1;P1;durP2;ratioP2;P2;SDS_P1;SDS_P2;PMS_P1;PMS_P2;Temp;Humidity;BMP_temperature;BMP_pressure;BME280_temperature;BME280_humidity;BME280_pressure;Samples;Min_cycle;Max_cycle;Signal;HPM_P1;HPM_P2
2022/07/20 00:00:34;;;;;;;8.23;2.63;;;22.30;99.90;;;;;;5044996;28;20791;-70
2022/07/20 00:03:08;;;;;;;3.70;2.38;;;22.30;99.90;;;;;;5046390;28;20116;-70
2022/07/20 00:05:34;;;;;;;6.63;2.90;;;22.30;99.90;;;;;;5045731;28;20103;-70
2022/07/20 00:08:00;;;;;;;6.57;2.58;;;22.20;99.90;;;;;;5031285;28;20033;-70
2022/07/20 00:13:11;;;;;;;7.03;2.47;;;22.10;99.90;;;;;;5048595;28;20052;-70
2022/07/20 00:15:37;;;;;;;4.63;2.70;;;22.00;99.90;;;;;;5048075;28;20075;-70
2022/07/20 00:18:03;;;;;;;6.03;2.58;;;22.00;99.90;;;;;;5031751;28;20496;-70
2022/07/20 00:20:28;;;;;;;3.78;2.10;;;21.90;99.90;;;;;;5052196;28;20041;-70
2022/07/20 00:22:56;;;;;;;5.07;2.45;;;21.90;99.90;;;;;;5043559;28;20057;-70
2022/07/20 00:25:21;;;;;;;8.15;2.67;;;21.80;99.90;;;;;;5049766;28;20103;-70
2022/07/20 00:27:47;;;;;;;8.63;2.50;;;21.80;99.90;;;;;;5035003;28;20040;-70
2022/07/20 00:30:13;;;;;;;7.22;2.50;;;21.80;99.90;;;;;;5046804;28;20570;-70
2022/07/20 00:32:39;;;;;;;5.97;2.50;;;21.70;99.90;;;;;;5037446;28;20583;-70
2022/07/20 00:35:07;;;;;;;7.32;2.80;;;21.70;99.90;;;;;;5042314;28;20063;-70
2022/07/20 00:37:33;;;;;;;2.97;2.50;;;21.60;99.90;;;;;;5033077;28;20199;-69
2022/07/20 00:39:59;;;;;;;4.50;2.58;;;21.60;99.90;;;;;;5044777;28;20503;-70
2022/07/20 00:42:24;;;;;;;5.63;2.85;;;21.50;99.90;;;;;;5037235;28;20037;-70
2022/07/20 00:44:50;;;;;;;4.30;2.55;;;21.40;99.90;;;;;;5038685;28;20374;-70
2022/07/20 00:47:16;;;;;;;6.10;2.60;;;21.40;99.90;;;;;;5024435;28;20053;-71
2022/07/20 00:49:42;;;;;;;5.10;2.50;;;21.30;99.90;;;;;;5037599;28;20041;-70
2022/07/20 00:52:08;;;;;;;7.47;2.65;;;21.30;99.90;;;;;;5036238;28;20076;-70
2022/07/20 00:54:34;;;;;;;5.47;2.72;;;21.20;99.90;;;;;;5037109;28;20060;-70
2022/07/20 00:57:01;;;;;;;4.97;2.60;;;21.20;99.90;;;;;;5020435;28;20045;-70
2022/07/20 00:59:27;;;;;;;5.30;2.60;;;21.10;99.90;;;;;;5035468;28;20122;-70
2022/07/20 01:01:53;;;;;;;6.05;2.55;;;21.10;99.90;;;;;;5034110;28;20489;-69
2022/07/20 01:04:19;;;;;;;5.88;2.55;;;21.10;99.90;;;;;;5039361;28;20124;-69
2022/07/20 01:06:45;;;;;;;5.35;2.47;;;21.00;99.90;;;;;;5023171;28;20128;-69
2022/07/20 01:09:11;;;;;;;4.95;2.50;;;21.00;99.90;;;;;;5040736;28;20048;-69
2022/07/20 01:11:36;;;;;;;7.72;2.83;;;21.00;99.90;;;;;;5041645;28;20048;-69
2022/07/20 01:14:07;;;;;;;5.22;2.60;;;20.90;99.90;;;;;;5037991;28;20102;-69
2022/07/20 01:16:34;;;;;;;5.97;2.53;;;20.80;99.90;;;;;;5026748;28;20049;-70
2022/07/20 01:19:00;;;;;;;3.45;2.33;;;20.80;99.90;;;;;;5037128;28;20044;-69
2022/07/20 01:21:26;;;;;;;7.32;2.83;;;20.80;99.90;;;;;;5036133;28;20054;-69
2022/07/20 01:23:52;;;;;;;8.23;2.70;;;20.70;99.90;;;;;;5017876;28;20140;-69
2022/07/20 01:26:19;;;;;;;6.00;2.70;;;20.70;99.90;;;;;;5033009;28;20187;-69
2022/07/20 01:28:46;;;;;;;4.85;2.72;;;20.70;99.90;;;;;;5032181;28;20050;-69
2022/07/20 01:31:12;;;;;;;7.45;2.70;;;20.60;99.90;;;;;;5040621;28;20132;-69
2022/07/20 01:33:38;;;;;;;4.47;2.80;;;20.60;99.90;;;;;;5040504;28;20135;-68
2022/07/20 01:36:04;;;;;;;7.00;2.90;;;20.70;99.90;;;;;;5038620;28;20068;-69
2022/07/20 01:38:30;;;;;;;4.75;2.50;;;20.60;99.90;;;;;;5024088;28;20059;-69
2022/07/20 01:40:55;;;;;;;5.20;2.70;;;20.60;99.90;;;;;;5039132;28;20053;-69
2022/07/20 01:43:24;;;;;;;5.18;2.70;;;20.50;99.90;;;;;;5038640;28;20512;-69
2022/07/20 01:45:50;;;;;;;7.20;2.80;;;20.50;99.90;;;;;;5037187;28;20063;-68
2022/07/20 01:48:15;;;;;;;6.40;3.00;;;20.40;99.90;;;;;;5025159;28;20496;-69
2022/07/20 01:50:41;;;;;;;5.18;2.70;;;20.40;99.90;;;;;;5042255;28;20118;-69
2022/07/20 01:53:07;;;;;;;5.68;2.97;;;20.30;99.90;;;;;;5044662;28;20048;-69
2022/07/20 01:55:34;;;;;;;5.85;2.90;;;20.30;99.90;;;;;;5041148;28;20124;-69
2022/07/20 01:58:00;;;;;;;7.13;2.78;;;20.30;99.90;;;;;;5025524;28;21968;-69
2022/07/20 02:00:26;;;;;;;5.28;2.63;;;20.20;99.90;;;;;;5041193;28;20049;-69
2022/07/20 02:02:52;;;;;;;5.70;2.75;;;20.20;99.90;;;;;;5038491;28;20056;-69
2022/07/20 02:05:19;;;;;;;4.75;2.90;;;20.10;99.90;;;;;;5046467;28;20101;-69
2022/07/20 02:07:45;;;;;;;4.88;2.38;;;20.10;99.90;;;;;;5026745;28;20190;-70
2022/07/20 02:10:12;;;;;;;4.22;2.65;;;20.00;99.90;;;;;;5044694;28;20049;-70
2022/07/20 02:12:39;;;;;;;5.93;2.80;;;20.00;99.90;;;;;;5042412;28;20107;-69
2022/07/20 02:15:06;;;;;;;4.88;2.80;;;20.00;99.90;;;;;;5046850;28;20129;-69
2022/07/20 02:17:32;;;;;;;3.88;2.75;;;19.90;99.90;;;;;;5029090;28;20037;-69
2022/07/20 02:19:58;;;;;;;4.63;2.50;;;19.90;99.90;;;;;;5042871;28;20530;-69
2022/07/20 02:22:24;;;;;;;7.40;2.85;;;19.90;99.90;;;;;;5042527;28;20050;-69
2022/07/20 02:24:49;;;;;;;5.07;2.40;;;19.90;99.90;;;;;;5037061;28;20124;-69
2022/07/20 02:27:15;;;;;;;4.95;2.80;;;19.80;99.90;;;;;;5030054;28;20089;-69
2022/07/20 02:29:41;;;;;;;8.93;2.88;;;19.80;99.90;;;;;;5044808;28;20656;-69
2022/07/20 02:32:07;;;;;;;6.28;2.83;;;19.80;99.90;;;;;;5037023;28;20049;-68
2022/07/20 02:34:32;;;;;;;10.38;2.80;;;19.80;99.90;;;;;;5039215;28;20064;-68
2022/07/20 02:36:58;;;;;;;6.28;2.80;;;19.70;99.90;;;;;;5025935;28;20069;-69
2022/07/20 02:39:23;;;;;;;7.40;2.92;;;19.70;99.90;;;;;;5032308;28;20124;-69
2022/07/20 02:41:49;;;;;;;8.38;2.75;;;19.70;99.90;;;;;;5032688;28;20378;-69
2022/07/20 02:44:15;;;;;;;4.40;2.80;;;19.70;99.90;;;;;;5029048;28;20572;-69
2022/07/20 02:46:40;;;;;;;4.40;2.60;;;19.70;99.90;;;;;;5017789;28;20511;-69
2022/07/20 02:49:07;;;;;;;6.70;2.97;;;19.60;99.90;;;;;;5030949;28;20168;-68
2022/07/20 02:51:33;;;;;;;6.55;2.55;;;19.60;99.90;;;;;;5030628;28;20068;-69
2022/07/20 02:53:59;;;;;;;5.10;2.70;;;19.60;99.90;;;;;;5029698;28;20048;-69
2022/07/20 02:56:24;;;;;;;7.63;2.85;;;19.60;99.90;;;;;;5030175;28;20049;-69
2022/07/20 02:58:50;;;;;;;5.13;2.92;;;19.70;99.90;;;;;;5029856;28;20052;-69
2022/07/20 03:01:16;;;;;;;7.13;3.00;;;19.60;99.90;;;;;;5035541;28;20047;-69
2022/07/20 03:03:42;;;;;;;6.70;2.90;;;19.70;99.90;;;;;;5033282;28;20877;-69
2022/07/20 03:06:09;;;;;;;6.22;2.80;;;19.70;99.90;;;;;;5028893;28;20526;-70
2022/07/20 03:08:35;;;;;;;5.18;2.72;;;19.70;99.90;;;;;;5023508;28;20064;-69
2022/07/20 03:11:00;;;;;;;4.40;2.67;;;19.60;99.90;;;;;;5035106;28;20049;-69
2022/07/20 03:13:26;;;;;;;7.38;3.08;;;19.70;99.90;;;;;;5034072;28;20431;-69
2022/07/20 03:15:53;;;;;;;6.57;3.10;;;19.60;99.90;;;;;;5040199;28;20132;-69
2022/07/20 03:18:19;;;;;;;7.95;3.10;;;19.60;99.90;;;;;;5026065;28;20456;-69
2022/07/20 03:20:44;;;;;;;4.05;2.92;;;19.60;99.90;;;;;;5038101;28;20128;-69
2022/07/20 03:23:10;;;;;;;10.23;2.88;;;19.60;99.90;;;;;;5033816;28;20053;-69
2022/07/20 03:25:36;;;;;;;5.25;3.10;;;19.50;99.90;;;;;;5035938;28;20048;-69
2022/07/20 03:28:02;;;;;;;7.35;2.90;;;19.50;99.90;;;;;;5020529;28;20135;-69
2022/07/20 03:30:29;;;;;;;7.95;2.92;;;19.50;99.90;;;;;;5034424;28;20041;-69
2022/07/20 03:32:55;;;;;;;6.28;2.90;;;19.50;99.90;;;;;;5034383;28;20052;-68
2022/07/20 03:35:21;;;;;;;6.22;2.90;;;19.40;99.90;;;;;;5036678;28;20436;-69
2022/07/20 03:37:47;;;;;;;8.63;3.17;;;19.40;99.90;;;;;;5026013;28;20057;-69
2022/07/20 03:40:13;;;;;;;7.85;3.20;;;19.30;99.90;;;;;;5038535;28;20106;-69
2022/07/20 03:42:39;;;;;;;7.32;2.88;;;19.30;99.90;;;;;;5038057;28;20041;-69
2022/07/20 03:45:05;;;;;;;6.43;3.05;;;19.30;99.90;;;;;;5036507;28;20048;-69
2022/07/20 03:47:31;;;;;;;6.55;2.92;;;19.30;99.90;;;;;;5021126;28;20045;-70
2022/07/20 03:49:56;;;;;;;3.80;2.83;;;19.30;99.90;;;;;;5039563;28;20042;-69
2022/07/20 03:52:22;;;;;;;7.22;3.08;;;19.30;99.90;;;;;;5039438;28;20129;-69
2022/07/20 03:54:48;;;;;;;6.72;3.40;;;19.30;99.90;;;;;;5034907;28;20079;-69
2022/07/20 03:57:14;;;;;;;7.72;3.28;;;19.30;99.90;;;;;;5025354;28;20048;-70
2022/07/20 03:59:41;;;;;;;5.35;2.58;;;19.30;99.90;;;;;;5042185;28;20059;-70
2022/07/20 04:02:07;;;;;;;4.43;2.67;;;19.20;99.90;;;;;;5038579;28;20052;-68
2022/07/20 04:04:33;;;;;;;4.78;3.38;;;19.20;99.90;;;;;;5042919;28;20057;-69
2022/07/20 04:06:58;;;;;;;9.32;3.08;;;19.20;99.90;;;;;;5025549;28;20041;-69
2022/07/20 04:12:10;;;;;;;7.25;2.95;;;19.10;99.90;;;;;;5042733;28;20446;-70
2022/07/20 04:14:36;;;;;;;6.95;3.00;;;19.10;99.90;;;;;;5039794;28;20534;-68
2022/07/20 04:17:02;;;;;;;4.82;2.50;;;19.10;99.90;;;;;;5026785;28;20084;-69
2022/07/20 04:19:28;;;;;;;6.95;3.10;;;19.10;99.90;;;;;;5040304;28;20049;-68
2022/07/20 04:22:01;;;;;;;5.18;3.00;;;19.10;99.90;;;;;;5040724;28;20050;-69
2022/07/20 04:24:27;;;;;;;6.07;3.20;;;19.20;99.90;;;;;;5041538;28;20484;-69
2022/07/20 04:26:53;;;;;;;13.80;3.38;;;19.30;99.90;;;;;;5031491;28;20044;-69
2022/07/20 04:29:19;;;;;;;8.15;3.58;;;19.40;99.90;;;;;;5047947;28;20112;-69
2022/07/20 04:31:44;;;;;;;6.68;3.50;;;19.50;99.90;;;;;;5039210;28;20094;-69
2022/07/20 04:34:10;;;;;;;8.98;3.33;;;19.50;99.90;;;;;;5035647;28;20065;-69
2022/07/20 04:36:36;;;;;;;9.23;3.50;;;19.60;99.90;;;;;;5033420;28;20482;-69
2022/07/20 04:39:02;;;;;;;5.88;3.20;;;19.60;99.90;;;;;;5032676;28;20725;-69
2022/07/20 04:41:28;;;;;;;6.47;3.20;;;19.60;99.90;;;;;;5034083;28;20033;-69
2022/07/20 04:43:53;;;;;;;9.63;3.22;;;19.70;99.90;;;;;;5036366;28;20046;-69
2022/07/20 04:46:19;;;;;;;7.13;2.60;;;19.80;99.90;;;;;;5028812;28;20057;-69
2022/07/20 04:48:45;;;;;;;6.65;3.13;;;19.70;99.90;;;;;;5033565;28;20049;-69
2022/07/20 04:51:10;;;;;;;5.35;3.10;;;19.70;99.90;;;;;;5037926;28;20054;-68
2022/07/20 04:53:36;;;;;;;5.20;3.33;;;19.80;99.90;;;;;;5038806;28;20037;-68
2022/07/20 04:56:02;;;;;;;10.23;3.33;;;19.80;99.90;;;;;;5040743;28;20079;-69
2022/07/20 04:58:31;;;;;;;8.25;3.28;;;19.90;99.90;;;;;;5023929;28;20060;-69
2022/07/20 05:00:57;;;;;;;6.50;3.60;;;19.90;99.90;;;;;;5041165;28;20053;-69
2022/07/20 05:03:22;;;;;;;4.90;2.92;;;20.10;99.90;;;;;;5038824;28;20140;-69
2022/07/20 05:05:48;;;;;;;8.15;3.40;;;20.30;99.90;;;;;;5054229;28;20588;-69
2022/07/20 05:08:14;;;;;;;10.18;3.10;;;20.50;99.90;;;;;;5018165;28;20381;-69
2022/07/20 05:10:40;;;;;;;4.93;3.35;;;20.60;99.90;;;;;;5036534;28;20053;-70
2022/07/20 05:13:05;;;;;;;5.93;2.95;;;20.80;99.90;;;;;;5036477;28;20056;-69
2022/07/20 05:15:31;;;;;;;6.50;3.08;;;21.20;99.90;;;;;;5035003;28;20045;-69
2022/07/20 05:17:57;;;;;;;6.68;3.25;;;21.40;99.90;;;;;;5019103;28;20042;-69
2022/07/20 05:20:23;;;;;;;8.63;3.35;;;21.40;99.80;;;;;;5040378;28;20457;-70
2022/07/20 05:22:48;;;;;;;4.30;3.10;;;21.60;99.90;;;;;;5041044;28;20069;-69
2022/07/20 05:25:14;;;;;;;6.78;3.20;;;21.60;99.90;;;;;;5037389;28;20400;-70
2022/07/20 05:27:40;;;;;;;8.10;3.17;;;21.70;99.30;;;;;;5022288;28;20407;-70
2022/07/20 05:30:06;;;;;;;6.30;3.20;;;21.90;99.30;;;;;;5035368;28;20487;-70
2022/07/20 05:32:32;;;;;;;7.35;3.30;;;22.10;99.30;;;;;;5039742;28;20688;-70
2022/07/20 05:34:57;;;;;;;6.15;2.97;;;22.20;99.90;;;;;;5038401;28;20057;-69
2022/07/20 05:37:24;;;;;;;8.73;3.30;;;22.30;99.90;;;;;;5022373;28;20048;-70
2022/07/20 05:39:49;;;;;;;9.05;3.17;;;22.50;99.90;;;;;;5043648;28;20041;-69
2022/07/20 05:42:15;;;;;;;5.05;3.30;;;22.60;99.40;;;;;;5039224;28;20065;-69
2022/07/20 05:44:40;;;;;;;9.35;3.17;;;22.70;99.80;;;;;;5038063;28;20041;-70
2022/07/20 05:47:06;;;;;;;6.80;3.20;;;22.90;99.40;;;;;;5020876;28;20087;-69
2022/07/20 05:49:33;;;;;;;7.00;3.08;;;23.00;99.50;;;;;;5031620;28;20081;-69
2022/07/20 05:51:59;;;;;;;6.65;2.92;;;23.10;99.90;;;;;;5033580;28;20373;-70
2022/07/20 05:54:25;;;;;;;6.97;3.30;;;23.10;99.70;;;;;;5038622;28;20056;-69
2022/07/20 05:56:51;;;;;;;7.65;2.97;;;23.20;99.20;;;;;;5017109;28;20610;-70
2022/07/20 05:59:16;;;;;;;7.32;3.20;;;23.40;98.60;;;;;;5033743;28;20080;-70
2022/07/20 06:01:44;;;;;;;10.13;3.55;;;23.60;97.30;;;;;;5032509;28;20056;-70
2022/07/20 06:04:11;;;;;;;5.43;3.13;;;23.60;97.60;;;;;;5042156;28;20037;-70
2022/07/20 06:06:37;;;;;;;7.80;3.20;;;23.80;96.70;;;;;;5020078;28;20522;-71
2022/07/20 06:09:07;;;;;;;5.93;3.28;;;23.90;96.10;;;;;;5029832;28;20045;-70
2022/07/20 06:11:33;;;;;;;6.70;3.25;;;23.90;95.90;;;;;;5030893;28;20049;-70
2022/07/20 06:14:00;;;;;;;8.18;3.15;;;24.10;96.10;;;;;;5029760;28;20064;-70
2022/07/20 06:16:25;;;;;;;6.57;3.20;;;24.10;96.00;;;;;;5009669;28;20044;-70
2022/07/20 06:18:51;;;;;;;8.60;3.38;;;24.10;96.30;;;;;;5033512;28;20080;-70
2022/07/20 06:21:17;;;;;;;7.40;3.60;;;24.30;96.10;;;;;;5036671;28;20051;-70
2022/07/20 06:23:42;;;;;;;6.18;3.50;;;24.40;96.00;;;;;;5031030;28;20128;-71
2022/07/20 06:26:08;;;;;;;5.72;3.50;;;24.50;96.50;;;;;;5031807;28;20053;-72
2022/07/20 06:28:34;;;;;;;7.25;3.63;;;24.60;96.80;;;;;;5026819;28;20055;-70
2022/07/20 06:31:00;;;;;;;8.13;3.15;;;24.60;96.40;;;;;;5018131;28;20080;-71
2022/07/20 06:33:26;;;;;;;6.10;3.35;;;24.80;96.40;;;;;;5034833;28;20042;-70
2022/07/20 06:35:52;;;;;;;7.88;3.58;;;24.60;96.40;;;;;;5030784;28;20497;-70
2022/07/20 06:38:17;;;;;;;8.52;3.65;;;24.90;95.10;;;;;;5017064;28;20492;-70
2022/07/20 06:40:43;;;;;;;6.88;3.53;;;25.20;93.70;;;;;;5037941;28;20090;-70
2022/07/20 06:43:09;;;;;;;10.60;3.28;;;25.20;95.00;;;;;;5031372;28;20296;-71
2022/07/20 06:45:41;;;;;;;6.80;3.28;;;25.20;94.30;;;;;;5037510;28;20049;-71
2022/07/20 06:48:06;;;;;;;8.02;3.22;;;25.20;94.20;;;;;;5019857;28;20045;-70
2022/07/20 06:50:32;;;;;;;9.95;3.90;;;25.20;93.60;;;;;;5036185;28;20049;-71
2022/07/20 06:52:57;;;;;;;10.13;3.67;;;25.30;93.00;;;;;;5030310;28;20166;-72
2022/07/20 06:55:23;;;;;;;8.80;3.67;;;25.20;93.00;;;;;;5032175;28;20112;-71
2022/07/20 06:57:49;;;;;;;11.75;4.03;;;25.30;93.20;;;;;;5020022;28;20103;-70
2022/07/20 07:00:14;;;;;;;8.10;3.40;;;25.20;92.30;;;;;;5034705;28;20060;-71
2022/07/20 07:02:40;;;;;;;11.60;4.13;;;25.20;93.00;;;;;;5030754;28;20506;-71
2022/07/20 07:05:07;;;;;;;8.45;4.03;;;25.20;92.30;;;;;;5036473;28;20118;-71
2022/07/20 07:07:32;;;;;;;10.68;3.92;;;25.20;92.80;;;;;;5030161;28;20049;-71
2022/07/20 07:09:58;;;;;;;10.57;4.55;;;25.20;93.00;;;;;;5032813;28;20480;-70
2022/07/20 07:12:24;;;;;;;7.57;4.00;;;25.40;92.80;;;;;;5037892;28;20335;-71
2022/07/20 07:14:50;;;;;;;10.90;3.95;;;25.40;92.70;;;;;;5036302;28;20186;-71
2022/07/20 07:17:16;;;;;;;10.88;4.22;;;25.40;94.00;;;;;;5022874;28;20055;-70
2022/07/20 07:19:42;;;;;;;13.63;4.50;;;25.30;93.20;;;;;;5037468;28;20381;-70
2022/07/20 07:22:09;;;;;;;13.10;4.80;;;25.30;93.40;;;;;;5029698;28;20044;-71
2022/07/20 07:24:34;;;;;;;9.65;5.00;;;25.30;93.70;;;;;;5035438;28;20382;-71
2022/07/20 07:27:01;;;;;;;9.48;5.20;;;25.40;94.50;;;;;;5021359;28;20044;-71
2022/07/20 07:29:26;;;;;;;9.82;4.88;;;25.40;93.90;;;;;;5031891;28;20260;-70
2022/07/20 07:31:58;;;;;;;9.88;4.97;;;25.40;94.40;;;;;;5035562;28;20130;-71
2022/07/20 07:34:25;;;;;;;10.15;6.30;;;25.50;94.50;;;;;;5032694;28;20041;-70
2022/07/20 07:36:51;;;;;;;10.68;5.88;;;25.60;94.60;;;;;;5019925;28;20551;-71
2022/07/20 07:39:16;;;;;;;11.73;6.13;;;25.60;95.00;;;;;;5032924;28;20484;-72
2022/07/20 07:41:42;;;;;;;13.65;6.03;;;25.60;95.00;;;;;;5037061;28;20136;-72
2022/07/20 07:44:08;;;;;;;12.88;6.28;;;25.60;95.30;;;;;;5037973;28;20080;-71
2022/07/20 07:46:33;;;;;;;12.43;6.05;;;25.60;95.40;;;;;;5026253;28;20045;-71
2022/07/20 07:48:59;;;;;;;9.10;6.07;;;25.60;95.50;;;;;;5036181;28;20037;-71
2022/07/20 07:51:25;;;;;;;12.18;6.35;;;25.70;96.70;;;;;;5041014;28;21422;-71
2022/07/20 07:53:50;;;;;;;8.95;5.75;;;25.70;95.90;;;;;;5039424;28;20045;-72
2022/07/20 07:56:16;;;;;;;11.07;7.15;;;25.80;96.10;;;;;;5031519;28;20068;-71
2022/07/20 07:58:42;;;;;;;12.13;7.15;;;25.90;96.30;;;;;;5034800;28;20460;-72
2022/07/20 08:01:08;;;;;;;14.65;7.22;;;25.90;96.70;;;;;;5039798;28;20192;-71
2022/07/20 08:03:33;;;;;;;13.43;7.38;;;25.90;96.40;;;;;;5039492;28;20472;-71
2022/07/20 08:06:00;;;;;;;11.02;7.15;;;26.10;96.40;;;;;;5047176;28;20132;-72
2022/07/20 08:08:25;;;;;;;16.35;8.05;;;26.10;97.20;;;;;;5027891;28;20049;-71
2022/07/20 08:10:51;;;;;;;12.70;8.05;;;26.30;97.00;;;;;;5040658;28;20098;-72
2022/07/20 08:13:17;;;;;;;14.95;9.38;;;26.60;97.60;;;;;;5044557;28;20041;-71
2022/07/20 08:15:43;;;;;;;16.92;9.63;;;26.50;98.30;;;;;;5045714;28;20128;-71
2022/07/20 08:18:08;;;;;;;17.17;10.43;;;26.50;98.60;;;;;;5027265;28;20044;-72
2022/07/20 08:20:35;;;;;;;15.50;10.10;;;26.50;97.80;;;;;;5047935;28;20124;-71
2022/07/20 08:23:00;;;;;;;21.58;12.38;;;26.60;98.00;;;;;;5041163;28;20041;-73
2022/07/20 08:25:26;;;;;;;21.85;11.60;;;26.60;98.00;;;;;;5045953;28;20052;-71
2022/07/20 08:27:52;;;;;;;16.00;11.05;;;26.60;98.30;;;;;;5030629;28;20056;-72
2022/07/20 08:30:18;;;;;;;21.58;12.43;;;26.70;99.30;;;;;;5045676;28;20056;-72
2022/07/20 08:32:44;;;;;;;25.35;12.60;;;26.60;98.60;;;;;;5036597;28;20045;-73
2022/07/20 08:35:10;;;;;;;20.02;11.73;;;26.70;98.70;;;;;;5039514;28;20053;-74
2022/07/20 08:37:37;;;;;;;21.92;13.23;;;26.80;99.10;;;;;;5027591;28;20060;-71
2022/07/20 08:40:04;;;;;;;18.67;13.95;;;26.60;99.70;;;;;;5032588;28;20484;-73
2022/07/20 08:42:30;;;;;;;24.83;14.73;;;26.70;99.80;;;;;;5038144;28;20090;-74
2022/07/20 08:44:56;;;;;;;25.15;15.45;;;26.70;99.90;;;;;;5041973;28;20049;-71
2022/07/20 08:47:28;;;;;;;27.38;17.10;;;26.50;99.90;;;;;;5017311;28;20511;-71
2022/07/20 08:49:54;;;;;;;25.50;15.95;;;26.60;99.90;;;;;;5038487;28;20095;-71
2022/07/20 08:52:19;;;;;;;25.33;17.48;;;26.70;99.90;;;;;;5033174;28;20505;-73
2022/07/20 08:54:45;;;;;;;30.55;19.52;;;26.70;99.90;;;;;;5032869;28;20468;-71
2022/07/20 08:57:15;;;;;;;30.63;18.52;;;26.60;99.90;;;;;;5024353;28;20574;-70
2022/07/20 08:59:41;;;;;;;24.92;17.67;;;26.60;99.90;;;;;;5035205;28;20041;-72
2022/07/20 09:02:08;;;;;;;28.58;17.85;;;26.70;99.90;;;;;;5036499;28;20057;-71
2022/07/20 09:04:55;;;;;;;24.23;18.50;;;26.70;99.90;;;;;;5039169;28;20471;-72
2022/07/20 09:07:39;;;;;;;25.83;18.65;;;26.90;99.90;;;;;;5022741;28;20061;-72
2022/07/20 09:10:08;;;;;;;30.40;18.33;;;26.90;99.90;;;;;;5034177;28;20095;-71
2022/07/20 09:12:55;;;;;;;28.90;19.48;;;27.00;99.90;;;;;;5039333;28;20559;-70
2022/07/20 09:15:36;;;;;;;29.70;18.50;;;27.00;99.90;;;;;;5037387;28;20046;-71
2022/07/20 09:18:17;;;;;;;28.70;18.58;;;27.00;99.90;;;;;;5024787;28;20069;-72
2022/07/20 09:20:44;;;;;;;32.63;21.27;;;27.10;99.90;;;;;;5048390;28;20060;-70
2022/07/20 09:23:14;;;;;;;31.38;21.10;;;26.90;99.90;;;;;;5036206;28;20057;-72
2022/07/20 09:26:03;;;;;;;30.65;20.25;;;26.90;99.90;;;;;;5039855;28;20052;-75
2022/07/20 09:28:50;;;;;;;30.58;22.85;;;26.90;99.90;;;;;;5023574;28;20053;-71
2022/07/20 09:31:26;;;;;;;30.52;20.77;;;26.90;99.90;;;;;;5039913;28;20081;-73
2022/07/20 09:33:52;;;;;;;34.50;22.02;;;26.90;99.90;;;;;;5037972;28;20060;-71
2022/07/20 09:36:20;;;;;;;36.20;21.48;;;27.00;99.90;;;;;;5027123;28;20069;-71
2022/07/20 09:38:46;;;;;;;35.80;22.55;;;26.90;99.90;;;;;;5034683;28;20115;-72
2022/07/20 09:41:28;;;;;;;33.65;21.67;;;27.00;99.90;;;;;;5041655;28;20045;-69
2022/07/20 09:43:55;;;;;;;31.63;21.70;;;26.90;99.90;;;;;;5036764;28;20040;-72
2022/07/20 09:46:25;;;;;;;32.30;20.83;;;26.90;99.90;;;;;;5027452;28;20076;-72
2022/07/20 09:48:57;;;;;;;27.70;20.38;;;26.80;99.90;;;;;;5036741;28;20439;-71
2022/07/20 09:51:38;;;;;;;39.45;20.67;;;26.70;99.90;;;;;;5040699;28;20373;-73
2022/07/20 09:54:07;;;;;;;31.50;21.65;;;26.80;99.50;;;;;;5037495;28;20041;-72
2022/07/20 09:56:34;;;;;;;33.05;20.50;;;26.60;99.80;;;;;;5028101;28;20637;-73
2022/07/20 09:59:04;;;;;;;28.08;21.23;;;26.70;99.90;;;;;;5040523;28;20057;-72
2022/07/20 10:01:33;;;;;;;28.90;19.20;;;27.00;99.60;;;;;;5041509;28;20053;-73
2022/07/20 10:04:00;;;;;;;28.50;18.92;;;27.00;99.00;;;;;;5038963;28;20077;-73
2022/07/20 10:06:27;;;;;;;28.17;19.63;;;27.10;99.00;;;;;;5032133;28;20527;-71
2022/07/20 10:08:53;;;;;;;27.08;17.38;;;27.20;98.90;;;;;;5036949;28;20085;-72
2022/07/20 10:11:21;;;;;;;29.50;18.00;;;27.30;99.00;;;;;;5045739;28;20395;-73
2022/07/20 10:13:48;;;;;;;24.08;16.45;;;27.10;98.00;;;;;;5041066;28;20106;-71
2022/07/20 10:16:35;;;;;;;26.35;16.55;;;27.20;97.60;;;;;;5034137;28;20045;-71
2022/07/20 10:19:03;;;;;;;22.23;15.40;;;27.20;97.30;;;;;;5037026;28;20045;-71
2022/07/20 10:21:38;;;;;;;29.83;15.07;;;27.20;96.90;;;;;;5042747;28;20136;-73
2022/07/20 10:24:30;;;;;;;21.77;14.65;;;27.10;95.40;;;;;;5039285;28;20041;-71
2022/07/20 10:27:08;;;;;;;20.90;13.85;;;27.00;95.00;;;;;;5023295;28;20037;-72
2022/07/20 10:29:38;;;;;;;21.33;13.77;;;27.00;95.50;;;;;;5037042;28;20064;-72
2022/07/20 10:32:09;;;;;;;22.58;15.20;;;27.00;95.50;;;;;;5032004;28;20045;-71
2022/07/20 10:34:47;;;;;;;20.70;15.02;;;27.00;96.00;;;;;;5030501;28;20489;-73
2022/07/20 10:37:39;;;;;;;25.38;14.38;;;27.20;95.60;;;;;;5022511;28;20056;-72
2022/07/20 10:40:14;;;;;;;25.08;13.20;;;27.30;95.60;;;;;;5032693;28;20189;-72
2022/07/20 10:42:47;;;;;;;20.45;12.00;;;27.40;95.00;;;;;;5034442;28;20040;-72
2022/07/20 10:45:27;;;;;;;23.50;11.38;;;27.50;94.80;;;;;;5035445;28;20076;-71
2022/07/20 10:47:54;;;;;;;17.00;10.90;;;27.20;94.10;;;;;;5020173;28;20568;-71
2022/07/20 10:50:34;;;;;;;23.00;11.63;;;27.20;94.50;;;;;;5038681;28;20036;-72
2022/07/20 10:53:11;;;;;;;15.27;10.03;;;27.30;94.60;;;;;;5031239;28;20048;-73
2022/07/20 10:55:37;;;;;;;16.48;10.73;;;27.30;94.90;;;;;;5017157;28;20049;-71
2022/07/20 10:58:10;;;;;;;18.20;10.50;;;27.30;94.80;;;;;;5013322;28;20046;-71
2022/07/20 11:00:37;;;;;;;16.65;11.25;;;27.20;94.50;;;;;;5033398;28;20108;-71
2022/07/20 11:03:19;;;;;;;14.60;10.20;;;27.20;94.40;;;;;;5031213;28;20132;-71
2022/07/20 11:05:47;;;;;;;19.25;10.57;;;27.30;94.00;;;;;;5034083;28;20047;-69
2022/07/20 11:08:13;;;;;;;17.27;10.95;;;27.00;94.20;;;;;;5035117;28;20049;-70
2022/07/20 11:10:40;;;;;;;17.00;11.07;;;26.90;94.60;;;;;;5033819;28;20680;-69
2022/07/20 11:13:09;;;;;;;17.02;10.77;;;27.20;94.70;;;;;;5030220;28;20056;-71
2022/07/20 11:15:45;;;;;;;21.40;11.77;;;27.30;94.30;;;;;;5031816;28;20087;-69
2022/07/20 11:18:22;;;;;;;16.67;10.65;;;27.30;93.60;;;;;;5017044;28;20484;-72
2022/07/20 11:20:49;;;;;;;21.48;10.65;;;27.30;93.80;;;;;;5031264;28;20053;-74
2022/07/20 11:23:16;;;;;;;19.50;11.00;;;27.50;95.60;;;;;;5028787;28;20049;-71
2022/07/20 11:26:00;;;;;;;20.30;11.50;;;27.70;94.00;;;;;;5035467;28;20475;-71
2022/07/20 11:28:32;;;;;;;17.25;10.65;;;27.60;93.60;;;;;;5019845;28;20045;-72
2022/07/20 11:30:58;;;;;;;19.63;11.82;;;27.80;94.20;;;;;;5020751;28;20045;-72
2022/07/20 11:33:42;;;;;;;18.95;11.88;;;27.70;93.50;;;;;;5031687;28;20041;-72
2022/07/20 11:36:14;;;;;;;19.35;11.23;;;27.70;93.60;;;;;;5039526;28;20080;-73
2022/07/20 11:38:59;;;;;;;18.67;11.05;;;27.80;94.00;;;;;;5030527;28;20206;-72
2022/07/20 11:41:31;;;;;;;17.77;11.20;;;27.90;93.80;;;;;;5037967;28;20042;-71
2022/07/20 11:43:58;;;;;;;16.52;10.25;;;27.70;92.90;;;;;;5034686;28;20102;-74
2022/07/20 11:46:26;;;;;;;15.65;9.98;;;27.70;93.30;;;;;;5021673;28;20088;-76
2022/07/20 11:49:02;;;;;;;16.65;10.00;;;27.90;92.70;;;;;;5031748;28;20050;-72
2022/07/20 11:51:30;;;;;;;15.48;9.60;;;27.90;91.50;;;;;;5039429;28;20045;-72
2022/07/20 11:53:56;;;;;;;13.98;9.10;;;27.80;92.00;;;;;;5032876;28;20077;-71
2022/07/20 11:56:25;;;;;;;14.55;8.93;;;27.90;93.00;;;;;;5029479;28;20047;-71
2022/07/20 11:58:53;;;;;;;15.90;8.52;;;28.00;92.90;;;;;;5034862;28;20492;-73
2022/07/20 12:01:24;;;;;;;11.48;8.05;;;28.00;92.90;;;;;;5040563;28;20106;-72
2022/07/20 12:03:55;;;;;;;13.45;8.70;;;27.90;92.90;;;;;;5034414;28;20120;-72
2022/07/20 12:06:22;;;;;;;14.73;8.55;;;27.80;93.20;;;;;;5031725;28;20048;-72
2022/07/20 12:09:07;;;;;;;13.80;7.65;;;27.80;92.20;;;;;;5036608;28;20053;-73
2022/07/20 12:11:54;;;;;;;12.43;7.10;;;27.90;92.70;;;;;;5042806;28;20053;-71
2022/07/20 12:14:39;;;;;;;12.93;7.93;;;28.10;92.70;;;;;;5035594;28;20476;-72
2022/07/20 12:17:21;;;;;;;14.82;7.68;;;28.10;92.50;;;;;;5028080;28;20455;-68
2022/07/20 12:19:50;;;;;;;15.20;8.18;;;28.20;91.70;;;;;;5039527;28;20397;-71
2022/07/20 12:22:29;;;;;;;13.70;7.90;;;28.30;92.30;;;;;;5043342;28;20080;-70
2022/07/20 12:24:59;;;;;;;13.75;8.13;;;28.20;91.60;;;;;;5035887;28;20523;-72
2022/07/20 12:27:30;;;;;;;14.30;8.07;;;28.10;91.50;;;;;;5031238;28;20045;-72
2022/07/20 12:29:58;;;;;;;14.23;8.93;;;28.00;90.50;;;;;;5031441;28;20084;-70
2022/07/20 12:32:35;;;;;;;16.85;8.35;;;28.00;90.30;;;;;;5031737;28;20034;-73
2022/07/20 12:35:06;;;;;;;14.15;9.02;;;28.10;91.00;;;;;;5045119;28;20056;-72
2022/07/20 12:37:58;;;;;;;13.02;10.18;;;28.20;90.40;;;;;;5016426;28;20049;-71
2022/07/20 12:40:44;;;;;;;16.05;11.38;;;28.00;88.50;;;;;;5036617;28;20129;-71
2022/07/20 12:43:30;;;;;;;16.58;11.50;;;28.00;89.30;;;;;;5029008;28;20580;-71
2022/07/20 12:46:01;;;;;;;17.25;11.48;;;27.90;87.90;;;;;;5036967;28;20524;-72
2022/07/20 12:48:27;;;;;;;16.67;11.13;;;27.80;88.90;;;;;;5020491;28;20116;-71
2022/07/20 12:50:53;;;;;;;14.25;11.75;;;28.00;90.20;;;;;;5037645;28;20753;-72